»·PEaware :: N35CF KLAS-KSBA

N35CF :: KLAS-KSBA

FLIGHT INFORMATION

Flight Status: Arrived
Operator: Privately registered:
United States
More flights under this callsign
Pilot: Todd C. (18613)
Aircraft: BEECH AIRCRAFT A90-E90 KING AIR
(BE9L)
More flights by this aircraft type
Origin: KLAS McCarran Intl
United States
Destination: KSBA Santa Barbara Mun
United States
More flights between these airports :: More routes between these airports
Route: +V538 GFS HEC V12 PMD FIM KWANG
File this flight plan on PilotEdge
Remarks:
Altitude:
(Current/Filed)
21,000ft
Speed:
(Current/Filed)
215kts
Departed: 29-Oct-20 12:30 PM
Arrived: 29-Oct-20 01:52 PM
Distance/Time
Traveled:
250nm/1:21
Distance/Time
To Go:
Arrived

Flight Plot

Page will automatically refresh every two minutes.

Flight plan parsing failed; only flown route is shown


Map Options




Map Legend


Flown Route
Filed Route
Departure Airport
Arrival Airport
Navaid (VOR, NDB)
Fix

Horizontal Profiles

Position Reports

Time Latitude Longitude Heading Altitude Ground
Speed
29-Oct-20 12:02 36.080157 -115.125472 89 2031ft 0kts
29-Oct-20 12:03 36.080157 -115.125472 89 2031ft 0kts
29-Oct-20 12:04 36.080157 -115.125472 89 2031ft 0kts
29-Oct-20 12:05 36.080157 -115.125472 89 2031ft 0kts
29-Oct-20 12:06 36.080157 -115.125472 89 2031ft 0kts
29-Oct-20 12:07 36.080157 -115.125472 89 2031ft 0kts
29-Oct-20 12:08 36.080157 -115.125472 89 2031ft 0kts
29-Oct-20 12:08 36.080157 -115.125472 89 2031ft 0kts
29-Oct-20 12:10 36.080157 -115.125472 89 2031ft 0kts
29-Oct-20 12:10 36.080157 -115.125472 89 2031ft 0kts
29-Oct-20 12:12 36.080157 -115.125472 89 2031ft 0kts
29-Oct-20 12:12 36.080157 -115.125472 89 2031ft 0kts
29-Oct-20 12:13 36.080157 -115.125472 89 2031ft 0kts
29-Oct-20 12:14 36.080157 -115.125472 89 2031ft 0kts
29-Oct-20 12:15 36.080157 -115.125472 89 2031ft 0kts
29-Oct-20 12:16 36.080157 -115.125472 89 2031ft 0kts
29-Oct-20 12:17 36.080157 -115.125472 89 2031ft 0kts
29-Oct-20 12:18 36.080157 -115.125472 89 2031ft 0kts
29-Oct-20 12:19 36.080157 -115.125472 89 2031ft 0kts
29-Oct-20 12:20 36.080157 -115.125472 89 2031ft 0kts
29-Oct-20 12:21 36.080157 -115.125561 90 2031ft 1kts
29-Oct-20 12:22 36.079843 -115.126365 185 2034ft 5kts
29-Oct-20 12:23 36.079785 -115.126367 180 2034ft 0kts
29-Oct-20 12:24 36.079675 -115.126370 181 2034ft 4kts
29-Oct-20 12:25 36.078271 -115.125216 89 2034ft 18kts
29-Oct-20 12:26 36.077295 -115.121308 165 2032ft 0kts
29-Oct-20 12:27 36.077295 -115.121308 165 2032ft 0kts
29-Oct-20 12:28 36.076426 -115.121902 271 2034ft 25kts
29-Oct-20 12:29 36.076434 -115.165839 272 2890ft 162kts
29-Oct-20 12:30 36.053592 -115.208574 198 4509ft 175kts
29-Oct-20 12:31 36.007044 -115.227477 200 6032ft 178kts
29-Oct-20 12:32 35.960335 -115.249262 201 7562ft 176kts
29-Oct-20 12:33 35.914407 -115.272668 203 8891ft 180kts
29-Oct-20 12:34 35.867722 -115.297093 201 10038ft 182kts
29-Oct-20 12:35 35.819529 -115.320638 200 11030ft 184kts
29-Oct-20 12:36 35.770506 -115.344808 200 12015ft 184kts
29-Oct-20 12:37 35.722345 -115.368837 200 12945ft 183kts
29-Oct-20 12:38 35.674489 -115.392982 200 13831ft 182kts
29-Oct-20 12:39 35.627460 -115.416947 200 14666ft 181kts
29-Oct-20 12:40 35.580921 -115.440875 200 15457ft 180kts
29-Oct-20 12:41 35.546455 -115.485294 233 16196ft 183kts
29-Oct-20 12:42 35.512397 -115.532789 224 16918ft 181kts
29-Oct-20 12:43 35.478152 -115.578151 224 17592ft 181kts
29-Oct-20 12:44 35.443800 -115.623422 224 18235ft 180kts
29-Oct-20 12:45 35.410538 -115.667123 223 19022ft 171kts
29-Oct-20 12:46 35.378616 -115.708977 223 19814ft 164kts
29-Oct-20 12:47 35.346490 -115.751082 223 20421ft 173kts
29-Oct-20 12:48 35.312685 -115.795379 223 21031ft 176kts
29-Oct-20 12:49 35.276409 -115.842833 223 21228ft 196kts
29-Oct-20 12:50 35.236488 -115.894989 223 21216ft 209kts
29-Oct-20 12:51 35.195698 -115.948192 224 21209ft 213kts
29-Oct-20 12:52 35.153593 -116.003011 224 21209ft 214kts
29-Oct-20 12:53 35.112226 -116.056772 224 21209ft 214kts
29-Oct-20 12:54 35.070738 -116.110582 224 21209ft 214kts
29-Oct-20 12:55 35.029535 -116.163930 224 21210ft 214kts
29-Oct-20 12:56 34.988232 -116.217325 223 21219ft 214kts
29-Oct-20 12:57 34.947380 -116.270089 223 21223ft 214kts
29-Oct-20 12:58 34.906201 -116.323144 223 21221ft 213kts
29-Oct-20 12:59 34.864041 -116.377188 223 21217ft 214kts
29-Oct-20 13:00 34.821810 -116.431229 223 21212ft 214kts
29-Oct-20 13:01 34.794176 -116.494020 259 21213ft 222kts
29-Oct-20 13:02 34.786501 -116.571253 260 21175ft 223kts
29-Oct-20 13:03 34.779014 -116.647575 260 21175ft 222kts
29-Oct-20 13:04 34.771421 -116.724595 259 21174ft 222kts
29-Oct-20 13:05 34.763830 -116.801080 259 21174ft 222kts
29-Oct-20 13:06 34.756042 -116.879060 259 21174ft 222kts
29-Oct-20 13:07 34.748188 -116.957164 259 21180ft 223kts
29-Oct-20 13:08 34.740264 -117.035448 260 21188ft 225kts
29-Oct-20 13:09 34.732592 -117.110755 266 21195ft 218kts
29-Oct-20 13:10 34.725170 -117.183218 266 21199ft 214kts
29-Oct-20 13:11 34.717734 -117.255366 266 21200ft 213kts
29-Oct-20 13:12 34.710342 -117.326659 266 21200ft 213kts
29-Oct-20 13:13 34.702870 -117.398301 266 21200ft 213kts
29-Oct-20 13:14 34.695341 -117.470073 266 21200ft 213kts
29-Oct-20 13:15 34.687772 -117.541824 266 21199ft 213kts
29-Oct-20 13:16 34.680172 -117.613450 266 21199ft 213kts
29-Oct-20 13:17 34.672592 -117.684463 266 21195ft 211kts
29-Oct-20 13:18 34.664923 -117.755971 266 21189ft 211kts
29-Oct-20 13:19 34.657274 -117.826866 266 21185ft 211kts
29-Oct-20 13:20 34.649619 -117.897406 266 21188ft 211kts
29-Oct-20 13:21 34.641910 -117.968077 266 21193ft 210kts
29-Oct-20 13:22 34.634154 -118.038773 266 21197ft 210kts
29-Oct-20 13:23 34.616922 -118.107279 252 21200ft 214kts
29-Oct-20 13:24 34.594613 -118.174533 252 21197ft 215kts
29-Oct-20 13:25 34.572197 -118.241820 252 21194ft 215kts
29-Oct-20 13:26 34.549791 -118.308925 252 21187ft 215kts
29-Oct-20 13:27 34.527160 -118.376561 252 21153ft 216kts
29-Oct-20 13:28 34.504404 -118.444449 252 20894ft 227kts
29-Oct-20 13:29 34.479189 -118.519486 252 19805ft 250kts
29-Oct-20 13:30 34.452516 -118.598640 251 18706ft 257kts
29-Oct-20 13:31 34.425246 -118.679360 251 17606ft 260kts
29-Oct-20 13:32 34.397645 -118.760848 250 16508ft 262kts
29-Oct-20 13:33 34.369896 -118.842570 250 15412ft 263kts
29-Oct-20 13:34 34.353435 -118.926943 267 14212ft 256kts
29-Oct-20 13:35 34.347123 -119.012614 267 12915ft 255kts
29-Oct-20 13:36 34.340801 -119.097974 267 11614ft 253kts
29-Oct-20 13:37 34.305400 -119.170360 223 10415ft 245kts
29-Oct-20 13:38 34.254476 -119.221178 221 9998ft 231kts
29-Oct-20 13:39 34.204941 -119.270280 221 8609ft 217kts
29-Oct-20 13:40 34.175796 -119.325533 305 7162ft 204kts
29-Oct-20 13:41 34.219571 -119.368385 309 5838ft 213kts
29-Oct-20 13:42 34.254955 -119.425495 307 4587ft 209kts
29-Oct-20 13:43 34.287990 -119.479539 306 4024ft 181kts
29-Oct-20 13:44 34.313954 -119.527781 293 4026ft 165kts
29-Oct-20 13:45 34.332149 -119.578242 291 3269ft 162kts
29-Oct-20 13:46 34.352124 -119.625194 296 2757ft 158kts
29-Oct-20 13:47 34.371792 -119.675025 293 2682ft 168kts
29-Oct-20 13:49 34.390892 -119.727979 291 2014ft 173kts
29-Oct-20 13:50 34.409758 -119.776399 293 1097ft 125kts
29-Oct-20 13:51 34.422860 -119.811031 292 522ft 105kts
29-Oct-20 13:52 34.427778 -119.839667 269 12ft 27kts
29-Oct-20 13:53 34.426947 -119.841460 165 13ft 0kts
29-Oct-20 13:54 34.426947 -119.841460 165 13ft 0kts
29-Oct-20 13:55 34.426947 -119.841460 165 13ft 0kts
29-Oct-20 13:56 34.424963 -119.840852 165 13ft 17kts
29-Oct-20 13:57 34.422615 -119.838236 120 13ft 15kts
29-Oct-20 13:58 34.423218 -119.836072 256 10ft 0kts
29-Oct-20 13:59 34.423218 -119.836072 256 10ft 0kts
29-Oct-20 14:00 34.423218 -119.836072 256 10ft 0kts
29-Oct-20 14:01 34.423218 -119.836072 256 10ft 0kts
29-Oct-20 14:02 34.423218 -119.836072 256 10ft 0kts

Navigation Log

Ident Type
Flight plan parsing failed, navigation log unavailable